Time;durP1;ratioP1;P1;durP2;ratioP2;P2;SDS_P1;SDS_P2;PMS_P1;PMS_P2;Temp;Humidity;BMP_temperature;BMP_pressure;BME280_temperature;BME280_humidity;BME280_pressure;Samples;Min_cycle;Max_cycle;Signal;HPM_P1;HPM_P2
2024/03/05 00:03:12;;;;;;;;;;;;;;;7.37;100.00;95155.47;10360656;28;2177;-67
2024/03/05 00:08:15;;;;;;;;;;;;;;;7.45;100.00;95154.16;10358070;28;1859;-69
2024/03/05 00:13:19;;;;;;;;;;;;;;;7.35;100.00;95165.66;10359413;28;1968;-70
2024/03/05 00:18:22;;;;;;;;;;;;;;;7.33;100.00;95173.13;10358012;28;2070;-69
2024/03/05 00:23:24;;;;;;;;;;;;;;;7.39;100.00;95176.63;10353397;28;2371;-67
2024/03/05 00:28:28;;;;;;;;;;;;;;;7.27;100.00;95180.34;10352452;28;2037;-67
2024/03/05 00:33:31;;;;;;;;;;;;;;;7.26;100.00;95177.97;10367023;28;2081;-67
2024/03/05 00:38:34;;;;;;;;;;;;;;;7.29;100.00;95180.88;10361630;28;2012;-67
2024/03/05 00:43:37;;;;;;;;;;;;;;;7.26;100.00;95184.09;10365556;28;1990;-70
2024/03/05 00:48:39;;;;;;;;;;;;;;;7.15;100.00;95181.69;10359922;28;1912;-70
2024/03/05 00:53:43;;;;;;;;;;;;;;;7.23;100.00;95183.81;10367100;28;1918;-73
2024/03/05 00:58:45;;;;;;;;;;;;;;;7.17;100.00;95176.88;10359015;28;2425;-70
2024/03/05 01:03:48;;;;;;;;;;;;;;;7.14;100.00;95190.78;10364931;28;2674;-74
2024/03/05 01:08:51;;;;;;;;;;;;;;;7.10;100.00;95179.81;10366632;28;1913;-74
2024/03/05 01:13:54;;;;;;;;;;;;;;;7.05;100.00;95180.59;10362598;28;2050;-74
2024/03/05 01:18:58;;;;;;;;;;;;;;;7.10;100.00;95187.03;10362907;28;1960;-71
2024/03/05 01:24:01;;;;;;;;;;;;;;;7.16;100.00;95183.28;10361080;28;2038;-68
2024/03/05 01:29:04;;;;;;;;;;;;;;;7.10;100.00;95181.66;10358431;28;2031;-68
2024/03/05 01:34:06;;;;;;;;;;;;;;;7.04;100.00;95181.66;10362564;28;1994;-68
2024/03/05 01:39:09;;;;;;;;;;;;;;;7.01;100.00;95182.22;10377480;28;2082;-74
2024/03/05 01:44:13;;;;;;;;;;;;;;;7.00;100.00;95179.81;10364970;28;1905;-71
2024/03/05 01:49:16;;;;;;;;;;;;;;;7.03;100.00;95177.38;10354616;28;2082;-68
2024/03/05 01:54:19;;;;;;;;;;;;;;;6.99;100.00;95176.31;10361749;28;1988;-73
2024/03/05 01:59:21;;;;;;;;;;;;;;;7.02;100.00;95177.66;10366947;28;1936;-68
2024/03/05 02:04:24;;;;;;;;;;;;;;;6.93;100.00;95176.56;10357257;28;2095;-72
2024/03/05 02:09:27;;;;;;;;;;;;;;;6.87;100.00;95175.78;10365602;28;2989;-69
2024/03/05 02:14:30;;;;;;;;;;;;;;;6.89;100.00;95173.63;10358316;28;1943;-72
2024/03/05 02:19:33;;;;;;;;;;;;;;;6.86;100.00;95182.16;10369356;28;2070;-68
2024/03/05 02:24:36;;;;;;;;;;;;;;;6.89;100.00;95178.97;10365849;28;1998;-68
2024/03/05 02:29:39;;;;;;;;;;;;;;;6.82;100.00;95183.78;10354354;28;1919;-69
2024/03/05 02:34:42;;;;;;;;;;;;;;;6.77;100.00;95184.56;10360499;28;2077;-68
2024/03/05 02:39:45;;;;;;;;;;;;;;;6.78;100.00;95190.69;10357537;28;2338;-69
2024/03/05 02:44:48;;;;;;;;;;;;;;;6.81;100.00;95187.53;10358829;28;1933;-68
2024/03/05 02:49:50;;;;;;;;;;;;;;;6.73;100.00;95183.47;10370457;28;1987;-68
2024/03/05 02:54:54;;;;;;;;;;;;;;;6.82;100.00;95197.13;10367107;28;1985;-68
2024/03/05 02:59:56;;;;;;;;;;;;;;;6.87;100.00;95196.31;10364543;28;2989;-69
2024/03/05 03:05:02;;;;;;;;;;;;;;;6.92;100.00;95205.16;10356396;28;1990;-69
2024/03/05 03:10:05;;;;;;;;;;;;;;;6.75;100.00;95204.59;10361052;28;1898;-70
2024/03/05 03:15:09;;;;;;;;;;;;;;;6.89;100.00;95211.03;10358593;28;1952;-68
2024/03/05 03:20:15;;;;;;;;;;;;;;;6.91;100.00;95211.56;10361435;28;1830;-70
2024/03/05 03:25:18;;;;;;;;;;;;;;;6.91;100.00;95210.75;10370013;28;1833;-68
2024/03/05 03:30:22;;;;;;;;;;;;;;;6.77;100.00;95207.81;10353258;28;2066;-67
2024/03/05 03:35:24;;;;;;;;;;;;;;;6.43;100.00;95197.56;10364904;28;1952;-71
2024/03/05 03:40:33;;;;;;;;;;;;;;;6.37;100.00;95187.91;10367958;28;2823;-74
2024/03/05 03:45:38;;;;;;;;;;;;;;;6.41;100.00;95209.53;10367933;28;2052;-68
2024/03/05 03:50:41;;;;;;;;;;;;;;;6.44;100.00;95217.84;10354235;28;2160;-69
2024/03/05 03:55:44;;;;;;;;;;;;;;;6.55;100.00;95215.19;10362058;28;2041;-70
2024/03/05 04:00:46;;;;;;;;;;;;;;;6.65;100.00;95216.03;10356839;28;2153;-74
2024/03/05 04:05:49;;;;;;;;;;;;;;;6.69;100.00;95216.34;10366937;28;2038;-70
2024/03/05 04:10:51;;;;;;;;;;;;;;;6.73;100.00;95222.72;10364315;28;1999;-70
2024/03/05 04:15:55;;;;;;;;;;;;;;;6.64;100.00;95235.81;10370694;28;2050;-69
2024/03/05 04:20:57;;;;;;;;;;;;;;;6.68;100.00;95247.56;10363424;28;2411;-69
2024/03/05 04:26:07;;;;;;;;;;;;;;;6.67;100.00;95245.16;10361876;28;2169;-69
2024/03/05 04:31:10;;;;;;;;;;;;;;;6.73;100.00;95260.13;10367419;28;1941;-70
2024/03/05 04:36:14;;;;;;;;;;;;;;;6.75;100.00;95263.38;10361368;28;1977;-74
2024/03/05 04:41:17;;;;;;;;;;;;;;;6.76;100.00;95264.97;10359703;28;1970;-69
2024/03/05 04:46:20;;;;;;;;;;;;;;;6.75;100.00;95263.38;10363414;28;1933;-70
2024/03/05 04:51:23;;;;;;;;;;;;;;;6.72;100.00;95259.31;10356134;28;1901;-69
2024/03/05 04:56:26;;;;;;;;;;;;;;;6.71;100.00;95259.59;10353211;28;2131;-68
2024/03/05 05:01:29;;;;;;;;;;;;;;;6.74;100.00;95248.38;10366440;28;1908;-70
2024/03/05 05:06:33;;;;;;;;;;;;;;;6.73;100.00;95254.78;10366231;28;2448;-69
2024/03/05 05:11:36;;;;;;;;;;;;;;;6.72;100.00;95255.84;10372269;28;1990;-72
2024/03/05 05:16:39;;;;;;;;;;;;;;;6.66;100.00;95260.38;10371473;28;1972;-68
2024/03/05 05:21:42;;;;;;;;;;;;;;;6.62;100.00;95263.84;10358319;28;2048;-68
2024/03/05 05:26:45;;;;;;;;;;;;;;;6.47;100.00;95276.03;10365931;28;2030;-68
2024/03/05 05:31:48;;;;;;;;;;;;;;;6.37;100.00;95278.69;10361426;28;2086;-67
2024/03/05 05:36:51;;;;;;;;;;;;;;;6.35;100.00;95285.31;10365222;28;1973;-67
2024/03/05 05:41:56;;;;;;;;;;;;;;;6.42;100.00;95286.69;10363486;28;1885;-70
2024/03/05 05:47:03;;;;;;;;;;;;;;;6.45;100.00;95286.19;10363450;28;1907;-67
2024/03/05 05:52:07;;;;;;;;;;;;;;;6.53;100.00;95289.44;10358919;28;2073;-69
2024/03/05 05:57:10;;;;;;;;;;;;;;;6.53;100.00;95286.75;10386304;28;2061;-67
2024/03/05 06:02:16;;;;;;;;;;;;;;;6.61;100.00;95287.06;10366630;28;2818;-68
2024/03/05 06:07:20;;;;;;;;;;;;;;;6.67;100.00;95283.34;10366460;28;2053;-68
2024/03/05 06:12:25;;;;;;;;;;;;;;;6.74;100.00;95280.44;10359727;28;1995;-68
2024/03/05 06:17:27;;;;;;;;;;;;;;;6.82;100.00;95289.84;10359734;28;1989;-71
2024/03/05 06:22:30;;;;;;;;;;;;;;;6.86;100.00;95291.69;10363482;28;1916;-71
2024/03/05 06:27:36;;;;;;;;;;;;;;;7.04;100.00;95291.22;10355608;28;2030;-68
2024/03/05 06:32:40;;;;;;;;;;;;;;;7.20;100.00;95292.09;10366754;28;2301;-68
2024/03/05 06:37:43;;;;;;;;;;;;;;;7.37;100.00;95296.38;10372103;28;1977;-68
2024/03/05 06:42:51;;;;;;;;;;;;;;;7.49;100.00;95295.06;10362472;28;2066;-67
2024/03/05 06:48:00;;;;;;;;;;;;;;;7.43;100.00;95309.50;10357468;28;2755;-71
2024/03/05 06:58:37;;;;;;;;;;;;;;;7.57;100.00;95307.94;10360343;28;2113;-71
2024/03/05 07:03:42;;;;;;;;;;;;;;;7.66;100.00;95315.44;10375787;28;2147;-72
2024/03/05 07:08:44;;;;;;;;;;;;;;;7.81;100.00;95326.13;10358619;28;1921;-69
2024/03/05 07:13:48;;;;;;;;;;;;;;;7.85;100.00;95330.69;10362867;28;1961;-73
2024/03/05 07:18:52;;;;;;;;;;;;;;;7.91;100.00;95328.84;10353005;28;1973;-68
2024/03/05 07:23:57;;;;;;;;;;;;;;;7.84;100.00;95334.44;10372715;28;1951;-68
2024/03/05 07:29:00;;;;;;;;;;;;;;;7.97;100.00;95335.78;10368661;28;2241;-69
2024/03/05 07:34:03;;;;;;;;;;;;;;;8.16;100.00;95335.25;10369530;28;2069;-68
2024/03/05 07:39:11;;;;;;;;;;;;;;;8.30;100.00;95337.09;10362432;28;1989;-73
2024/03/05 07:44:14;;;;;;;;;;;;;;;8.46;100.00;95340.63;10371191;28;2158;-71
2024/03/05 07:49:16;;;;;;;;;;;;;;;8.58;100.00;95340.31;10373526;28;1884;-69
2024/03/05 07:54:20;;;;;;;;;;;;;;;8.51;100.00;95337.09;10366661;28;2077;-69
2024/03/05 07:59:23;;;;;;;;;;;;;;;8.61;100.00;95340.56;10360789;28;2051;-69
2024/03/05 08:04:26;;;;;;;;;;;;;;;8.92;100.00;95343.19;10390555;28;1957;-73
2024/03/05 08:15:07;;;;;;;;;;;;;;;8.94;100.00;95355.22;10359296;28;1999;-71
2024/03/05 08:20:14;;;;;;;;;;;;;;;8.87;100.00;95348.56;10367421;28;1974;-70
2024/03/05 08:25:16;;;;;;;;;;;;;;;8.77;100.00;95348.56;10376713;28;1993;-71
2024/03/05 08:30:19;;;;;;;;;;;;;;;8.70;100.00;95345.38;10367563;28;2058;-72
2024/03/05 08:35:22;;;;;;;;;;;;;;;8.64;100.00;95349.94;10361400;28;2010;-70
2024/03/05 08:40:25;;;;;;;;;;;;;;;8.53;100.00;95345.69;10364080;28;2062;-67
2024/03/05 08:45:28;;;;;;;;;;;;;;;8.45;100.00;95363.09;10361836;28;1976;-74
2024/03/05 08:50:31;;;;;;;;;;;;;;;8.62;100.00;95360.13;10360193;28;1916;-72
2024/03/05 08:55:35;;;;;;;;;;;;;;;8.58;100.00;95365.22;10363865;28;2629;-70
2024/03/05 09:00:38;;;;;;;;;;;;;;;8.65;100.00;95365.75;10366131;28;2208;-71
2024/03/05 09:05:45;;;;;;;;;;;;;;;8.71;100.00;95368.41;10357325;28;1915;-69
2024/03/05 09:10:49;;;;;;;;;;;;;;;8.83;100.00;95371.59;10368753;28;2355;-69
2024/03/05 09:15:53;;;;;;;;;;;;;;;8.76;100.00;95374.56;10366189;28;2155;-69
2024/03/05 09:20:56;;;;;;;;;;;;;;;8.94;100.00;95373.97;10360069;28;2010;-69
2024/03/05 09:25:59;;;;;;;;;;;;;;;9.15;100.00;95374.72;10361411;28;1975;-70
2024/03/05 09:31:01;;;;;;;;;;;;;;;9.18;100.00;95379.53;10359506;28;2062;-70
2024/03/05 09:36:08;;;;;;;;;;;;;;;8.97;100.00;95374.50;10367100;28;2440;-69
2024/03/05 09:41:11;;;;;;;;;;;;;;;8.93;100.00;95385.00;10372319;28;2067;-69
2024/03/05 09:46:14;;;;;;;;;;;;;;;8.53;100.00;95375.16;10357978;28;2049;-69
2024/03/05 09:51:19;;;;;;;;;;;;;;;8.47;100.00;95400.34;10361523;28;1982;-69
2024/03/05 09:56:23;;;;;;;;;;;;;;;8.72;100.00;95399.53;10360959;28;1990;-69
2024/03/05 10:01:26;;;;;;;;;;;;;;;8.70;100.00;95393.59;10365973;28;2062;-69
2024/03/05 10:06:29;;;;;;;;;;;;;;;8.87;100.00;95394.13;10355765;28;2004;-71
2024/03/05 10:11:31;;;;;;;;;;;;;;;9.20;100.00;95381.94;10362313;28;2371;-69
2024/03/05 10:16:35;;;;;;;;;;;;;;;9.81;100.00;95381.66;10366445;28;2082;-68
2024/03/05 10:21:38;;;;;;;;;;;;;;;10.10;100.00;95372.84;10360380;28;2461;-68
2024/03/05 10:26:41;;;;;;;;;;;;;;;10.63;100.00;95365.75;10352525;28;2097;-68
2024/03/05 10:31:44;;;;;;;;;;;;;;;10.91;100.00;95366.00;10357588;28;2140;-69
2024/03/05 10:36:47;;;;;;;;;;;;;;;11.10;100.00;95361.47;10358493;28;1970;-69
2024/03/05 10:41:50;;;;;;;;;;;;;;;11.16;100.00;95359.53;10359346;28;2042;-69
2024/03/05 10:46:54;;;;;;;;;;;;;;;11.46;100.00;95347.59;10369550;28;1933;-69
2024/03/05 10:51:58;;;;;;;;;;;;;;;11.96;100.00;95350.69;10357054;28;2054;-69
2024/03/05 10:57:01;;;;;;;;;;;;;;;12.53;100.00;95357.56;10353763;28;2034;-70
2024/03/05 11:02:04;;;;;;;;;;;;;;;12.02;100.00;95357.59;10354475;28;2970;-68
2024/03/05 11:07:07;;;;;;;;;;;;;;;11.57;100.00;95357.91;10362622;28;2035;-68
2024/03/05 11:12:09;;;;;;;;;;;;;;;11.55;100.00;95359.31;10361240;28;2084;-69
2024/03/05 11:17:12;;;;;;;;;;;;;;;11.31;100.00;95344.00;10360129;28;2019;-69
2024/03/05 11:22:15;;;;;;;;;;;;;;;11.27;100.00;95344.88;10360977;28;1972;-70
2024/03/05 11:27:22;;;;;;;;;;;;;;;11.95;100.00;95346.38;10359740;28;1891;-69
2024/03/05 11:32:26;;;;;;;;;;;;;;;11.87;100.00;95342.47;10371302;28;1916;-69
2024/03/05 11:37:28;;;;;;;;;;;;;;;12.03;100.00;95338.47;10358228;28;1938;-70
2024/03/05 11:42:31;;;;;;;;;;;;;;;11.72;100.00;95339.97;10348373;28;1953;-69
2024/03/05 11:47:35;;;;;;;;;;;;;;;11.42;100.00;95338.50;10357777;28;1900;-70
2024/03/05 11:52:37;;;;;;;;;;;;;;;11.81;100.00;95336.34;10357928;28;1910;-69
2024/03/05 11:57:40;;;;;;;;;;;;;;;11.54;100.00;95336.97;10362986;28;2334;-68
2024/03/05 12:02:45;;;;;;;;;;;;;;;11.04;100.00;95330.34;10380291;28;2046;-69
2024/03/05 12:07:48;;;;;;;;;;;;;;;10.50;100.00;95332.25;10361885;28;1873;-68
2024/03/05 12:12:51;;;;;;;;;;;;;;;10.24;100.00;95336.25;10363247;28;1893;-69
2024/03/05 12:17:54;;;;;;;;;;;;;;;10.02;100.00;95329.41;10354053;28;1995;-68
2024/03/05 12:22:57;;;;;;;;;;;;;;;10.09;100.00;95336.34;10360094;28;1927;-69
2024/03/05 12:28:00;;;;;;;;;;;;;;;9.93;100.00;95336.47;10356067;28;2140;-69
2024/03/05 12:33:04;;;;;;;;;;;;;;;9.76;100.00;95330.69;10374002;28;1850;-70
2024/03/05 12:38:08;;;;;;;;;;;;;;;9.64;100.00;95338.28;10365427;28;2517;-70
2024/03/05 12:43:11;;;;;;;;;;;;;;;9.57;100.00;95337.78;10376793;28;2028;-68
2024/03/05 12:48:13;;;;;;;;;;;;;;;9.12;100.00;95344.97;10375391;28;2131;-71
2024/03/05 12:53:16;;;;;;;;;;;;;;;9.23;100.00;95337.69;10375580;28;2038;-71
2024/03/05 12:58:21;;;;;;;;;;;;;;;9.37;100.00;95339.50;10363704;28;1918;-72
2024/03/05 13:03:25;;;;;;;;;;;;;;;9.86;100.00;95335.16;10372751;28;2147;-70
2024/03/05 13:08:28;;;;;;;;;;;;;;;9.96;100.00;95335.09;10356932;28;1955;-70
2024/03/05 13:13:32;;;;;;;;;;;;;;;10.27;100.00;95336.50;10365240;28;1892;-68
2024/03/05 13:18:37;;;;;;;;;;;;;;;10.99;100.00;95325.00;10372033;28;2018;-69
2024/03/05 13:23:40;;;;;;;;;;;;;;;10.96;100.00;95325.59;10364895;28;2375;-71
2024/03/05 13:28:43;;;;;;;;;;;;;;;11.02;100.00;95319.88;10361718;28;1967;-70
2024/03/05 13:33:46;;;;;;;;;;;;;;;10.63;100.00;95325.41;10368691;28;1879;-70
2024/03/05 13:38:51;;;;;;;;;;;;;;;10.18;100.00;95324.72;10367001;28;1958;-70
2024/03/05 13:43:54;;;;;;;;;;;;;;;10.41;100.00;95320.50;10360260;28;1928;-73
2024/03/05 13:48:58;;;;;;;;;;;;;;;10.88;100.00;95318.16;10367413;28;1947;-73
2024/03/05 13:54:02;;;;;;;;;;;;;;;11.04;100.00;95322.28;10359682;28;2035;-69
2024/03/05 13:59:05;;;;;;;;;;;;;;;11.24;100.00;95305.88;10362333;28;1967;-68
2024/03/05 14:04:09;;;;;;;;;;;;;;;11.51;100.00;95316.00;10360092;28;2268;-69
2024/03/05 14:09:13;;;;;;;;;;;;;;;11.45;100.00;95313.69;10377877;28;2137;-69
2024/03/05 14:14:19;;;;;;;;;;;;;;;11.21;100.00;95308.34;10358912;28;1945;-68
2024/03/05 14:19:23;;;;;;;;;;;;;;;11.05;100.00;95308.53;10358349;28;2066;-67
2024/03/05 14:24:26;;;;;;;;;;;;;;;11.26;100.00;95319.03;10359263;28;1990;-69
2024/03/05 14:29:29;;;;;;;;;;;;;;;10.91;100.00;95317.59;10358786;28;1929;-69
2024/03/05 14:34:32;;;;;;;;;;;;;;;10.64;100.00;95327.03;10362621;28;2066;-72
2024/03/05 14:39:35;;;;;;;;;;;;;;;10.43;100.00;95325.59;10363004;28;2192;-69
2024/03/05 14:44:39;;;;;;;;;;;;;;;10.43;100.00;95325.59;10357435;28;2004;-69
2024/03/05 14:49:42;;;;;;;;;;;;;;;10.65;100.00;95328.63;10356765;28;2218;-68
2024/03/05 14:54:45;;;;;;;;;;;;;;;10.69;100.00;95321.59;10357695;28;2144;-69
2024/03/05 14:59:48;;;;;;;;;;;;;;;10.52;100.00;95330.09;10361862;28;2124;-70
2024/03/05 15:04:51;;;;;;;;;;;;;;;10.60;100.00;95336.72;10362433;28;2317;-69
2024/03/05 15:09:54;;;;;;;;;;;;;;;10.68;100.00;95332.59;10361476;28;2134;-68
2024/03/05 15:14:56;;;;;;;;;;;;;;;10.40;100.00;95328.88;10370382;28;2024;-69
2024/03/05 15:20:00;;;;;;;;;;;;;;;10.19;100.00;95333.59;10359810;28;2083;-68
2024/03/05 15:25:06;;;;;;;;;;;;;;;10.22;100.00;95339.19;10361280;28;2114;-69
2024/03/05 15:30:13;;;;;;;;;;;;;;;10.15;100.00;95345.97;10355682;28;2040;-72
2024/03/05 15:35:16;;;;;;;;;;;;;;;9.98;100.00;95344.47;10358559;28;2056;-69
2024/03/05 15:40:19;;;;;;;;;;;;;;;9.63;100.00;95342.84;10366760;28;2355;-69
2024/03/05 15:45:22;;;;;;;;;;;;;;;9.61;100.00;95352.25;10359937;28;2165;-68
2024/03/05 15:50:24;;;;;;;;;;;;;;;9.60;100.00;95356.78;10360677;28;2596;-69
2024/03/05 15:55:27;;;;;;;;;;;;;;;9.56;100.00;95366.50;10360884;28;1949;-70
2024/03/05 16:00:34;;;;;;;;;;;;;;;9.26;100.00;95358.59;10367788;28;1936;-69
2024/03/05 16:05:37;;;;;;;;;;;;;;;9.31;100.00;95366.63;10375133;28;1958;-69
2024/03/05 16:11:07;;;;;;;;;;;;;;;9.16;100.00;95364.78;10376697;28;1884;-69
2024/03/05 16:16:09;;;;;;;;;;;;;;;8.99;100.00;95380.41;10367943;28;2085;-69
2024/03/05 16:21:12;;;;;;;;;;;;;;;8.73;100.00;95377.00;10357487;28;2100;-69
2024/03/05 16:26:16;;;;;;;;;;;;;;;8.65;100.00;95391.72;10363089;28;2356;-69
2024/03/05 16:31:21;;;;;;;;;;;;;;;8.32;100.00;95387.72;10371491;28;2113;-70
2024/03/05 16:36:24;;;;;;;;;;;;;;;7.64;100.00;95408.53;10367624;28;2014;-72
2024/03/05 16:41:27;;;;;;;;;;;;;;;7.21;100.00;95415.84;10366225;28;2216;-70
2024/03/05 16:46:33;;;;;;;;;;;;;;;6.81;100.00;95429.78;10370683;28;2254;-69
2024/03/05 16:51:39;;;;;;;;;;;;;;;6.56;100.00;95435.78;10356492;28;2026;-70
2024/03/05 16:56:43;;;;;;;;;;;;;;;6.52;100.00;95440.81;10368438;28;1990;-68
2024/03/05 17:01:46;;;;;;;;;;;;;;;6.39;100.00;95442.06;10365025;28;2096;-69
2024/03/05 17:06:50;;;;;;;;;;;;;;;6.46;100.00;95445.31;10367514;28;2693;-68
2024/03/05 17:11:54;;;;;;;;;;;;;;;6.55;100.00;95453.66;10358692;28;2003;-68
2024/03/05 17:16:57;;;;;;;;;;;;;;;6.60;100.00;95458.25;10361717;28;1873;-69
2024/03/05 17:22:03;;;;;;;;;;;;;;;6.64;100.00;95462.81;10363726;28;2269;-69
2024/03/05 17:27:05;;;;;;;;;;;;;;;6.71;100.00;95463.41;10361182;28;2243;-69
2024/03/05 17:32:09;;;;;;;;;;;;;;;6.73;100.00;95471.16;10363937;28;1994;-67
2024/03/05 17:37:14;;;;;;;;;;;;;;;6.73;100.00;95457.78;10379859;28;1968;-69
2024/03/05 17:42:17;;;;;;;;;;;;;;;6.73;100.00;95468.47;10361522;28;1957;-69
2024/03/05 17:47:20;;;;;;;;;;;;;;;6.59;100.00;95472.66;10368818;28;1868;-70
2024/03/05 17:52:26;;;;;;;;;;;;;;;6.57;100.00;95477.47;10362859;28;2592;-69
2024/03/05 17:57:30;;;;;;;;;;;;;;;6.60;100.00;95479.59;10357081;28;2062;-71
2024/03/05 18:02:35;;;;;;;;;;;;;;;6.60;100.00;95476.94;10364163;28;1998;-69
2024/03/05 18:07:38;;;;;;;;;;;;;;;6.43;100.00;95475.22;10366697;28;2030;-70
2024/03/05 18:12:43;;;;;;;;;;;;;;;6.34;100.00;95476.72;10361819;28;3605;-73
2024/03/05 18:17:48;;;;;;;;;;;;;;;6.33;100.00;95480.47;10359317;28;2075;-69
2024/03/05 18:22:51;;;;;;;;;;;;;;;6.41;100.00;95482.66;10362836;28;1901;-70
2024/03/05 18:27:55;;;;;;;;;;;;;;;6.46;100.00;95490.72;10355095;28;2182;-69
2024/03/05 18:32:58;;;;;;;;;;;;;;;6.50;100.00;95491.81;10365114;28;1885;-70
2024/03/05 18:38:01;;;;;;;;;;;;;;;6.49;100.00;95495.56;10363027;28;3039;-68
2024/03/05 18:43:09;;;;;;;;;;;;;;;6.47;100.00;95495.00;10357797;28;1909;-69
2024/03/05 18:48:12;;;;;;;;;;;;;;;6.55;100.00;95490.25;10359731;28;2146;-69
2024/03/05 18:53:17;;;;;;;;;;;;;;;6.54;100.00;95505.47;10360264;28;1947;-69
2024/03/05 18:58:21;;;;;;;;;;;;;;;6.52;100.00;95498.78;10360839;28;1934;-69
2024/03/05 19:03:24;;;;;;;;;;;;;;;6.57;100.00;95501.50;10363459;28;1905;-71
2024/03/05 19:08:27;;;;;;;;;;;;;;;6.59;100.00;95508.19;10357961;28;2487;-68
2024/03/05 19:13:30;;;;;;;;;;;;;;;6.64;100.00;95507.41;10359209;28;1989;-70
2024/03/05 19:18:33;;;;;;;;;;;;;;;6.62;100.00;95498.88;10358888;28;1928;-68
2024/03/05 19:23:39;;;;;;;;;;;;;;;6.52;100.00;95506.78;10367948;28;1856;-70
2024/03/05 19:28:42;;;;;;;;;;;;;;;6.67;100.00;95506.91;10360131;28;1999;-71
2024/03/05 19:33:45;;;;;;;;;;;;;;;6.77;100.00;95507.00;10360045;28;2740;-69
2024/03/05 19:38:48;;;;;;;;;;;;;;;6.65;100.00;95498.34;10375689;28;2089;-69
2024/03/05 19:43:51;;;;;;;;;;;;;;;6.57;100.00;95501.50;10370737;28;1881;-69
2024/03/05 19:48:54;;;;;;;;;;;;;;;6.42;100.00;95505.63;10374198;28;1975;-70
2024/03/05 19:54:00;;;;;;;;;;;;;;;6.29;100.00;95515.91;10373565;28;1837;-68
2024/03/05 19:59:04;;;;;;;;;;;;;;;6.19;100.00;95503.28;10370210;28;2011;-68
2024/03/05 20:04:08;;;;;;;;;;;;;;;6.15;100.00;95504.84;10369511;28;2067;-70
2024/03/05 20:09:15;;;;;;;;;;;;;;;6.18;100.00;95507.03;10370549;28;1897;-68
2024/03/05 20:14:19;;;;;;;;;;;;;;;6.07;100.00;95518.66;10370683;28;1920;-69
2024/03/05 20:19:22;;;;;;;;;;;;;;;5.96;100.00;95512.38;10378701;28;2109;-69
2024/03/05 20:24:26;;;;;;;;;;;;;;;5.93;100.00;95497.69;10376207;28;2506;-68
2024/03/05 20:29:28;;;;;;;;;;;;;;;5.94;100.00;95509.16;10374920;28;1914;-73
2024/03/05 20:34:31;;;;;;;;;;;;;;;5.69;100.00;95499.78;10377741;28;1969;-74
2024/03/05 20:39:34;;;;;;;;;;;;;;;5.63;100.00;95497.31;10371285;28;2043;-74
2024/03/05 20:44:42;;;;;;;;;;;;;;;5.60;100.00;95503.16;10367374;28;2052;-71
2024/03/05 20:49:45;;;;;;;;;;;;;;;5.62;100.00;95499.19;10364322;28;2082;-69
2024/03/05 20:54:51;;;;;;;;;;;;;;;5.58;100.00;95505.25;10364705;28;1908;-70
2024/03/05 20:59:59;;;;;;;;;;;;;;;5.39;100.00;95508.22;10357698;28;2202;-67
2024/03/05 21:05:04;;;;;;;;;;;;;;;5.49;100.00;95507.56;10374369;28;2486;-68
2024/03/05 21:10:07;;;;;;;;;;;;;;;5.45;100.00;95505.63;10367186;28;2021;-68
2024/03/05 21:15:14;;;;;;;;;;;;;;;5.40;100.00;95512.50;10385255;28;2279;-70
2024/03/05 21:20:19;;;;;;;;;;;;;;;5.39;100.00;95518.88;10367580;28;2258;-70
2024/03/05 21:25:22;;;;;;;;;;;;;;;5.43;100.00;95517.34;10362934;28;2066;-69
2024/03/05 21:30:27;;;;;;;;;;;;;;;5.46;100.00;95512.56;10370276;28;2062;-69
2024/03/05 21:35:31;;;;;;;;;;;;;;;5.50;100.00;95506.50;10359984;28;2106;-68
2024/03/05 21:40:34;;;;;;;;;;;;;;;5.49;100.00;95506.75;10369821;28;2614;-70
2024/03/05 21:45:38;;;;;;;;;;;;;;;5.52;100.00;95511.56;10356989;28;2261;-71
2024/03/05 21:50:41;;;;;;;;;;;;;;;5.40;100.00;95507.16;10367555;28;1968;-70
2024/03/05 21:55:44;;;;;;;;;;;;;;;5.23;100.00;95514.41;10355167;28;2059;-69
2024/03/05 22:00:47;;;;;;;;;;;;;;;5.35;100.00;95516.97;10362517;28;2117;-70
2024/03/05 22:05:50;;;;;;;;;;;;;;;5.29;100.00;95516.09;10357174;28;2129;-72
2024/03/05 22:10:52;;;;;;;;;;;;;;;5.34;100.00;95518.00;10359737;28;2127;-70
2024/03/05 22:15:55;;;;;;;;;;;;;;;5.31;100.00;95519.31;10366745;28;1894;-68
2024/03/05 22:21:00;;;;;;;;;;;;;;;5.14;100.00;95510.53;10356090;28;1979;-69
2024/03/05 22:26:03;;;;;;;;;;;;;;;5.21;100.00;95515.69;10363620;28;2066;-68
2024/03/05 22:31:05;;;;;;;;;;;;;;;5.28;100.00;95514.50;10369030;28;2340;-75
2024/03/05 22:36:08;;;;;;;;;;;;;;;5.24;100.00;95510.69;10362604;28;1901;-69
2024/03/05 22:41:11;;;;;;;;;;;;;;;5.15;100.00;95512.16;10363040;28;1980;-74
2024/03/05 22:46:15;;;;;;;;;;;;;;;5.08;100.00;95507.00;10361643;28;1933;-74
2024/03/05 22:51:18;;;;;;;;;;;;;;;5.13;100.00;95508.94;10361237;28;2080;-70
2024/03/05 22:56:20;;;;;;;;;;;;;;;5.23;100.00;95518.94;10367204;28;2057;-71
2024/03/05 23:01:23;;;;;;;;;;;;;;;5.22;100.00;95520.81;10362376;28;1993;-69
2024/03/05 23:06:26;;;;;;;;;;;;;;;5.25;100.00;95527.50;10361112;28;2042;-68
2024/03/05 23:11:29;;;;;;;;;;;;;;;5.24;100.00;95532.00;10358667;28;2773;-68
2024/03/05 23:16:32;;;;;;;;;;;;;;;5.21;100.00;95537.00;10368230;28;1963;-69
2024/03/05 23:21:34;;;;;;;;;;;;;;;5.22;100.00;95536.00;10354469;28;2074;-69
2024/03/05 23:26:38;;;;;;;;;;;;;;;5.21;100.00;95529.81;10358586;28;1894;-69
2024/03/05 23:31:41;;;;;;;;;;;;;;;5.22;100.00;95526.13;10357697;28;2056;-73
2024/03/05 23:36:45;;;;;;;;;;;;;;;5.14;100.00;95521.19;10354819;28;2102;-68
2024/03/05 23:41:48;;;;;;;;;;;;;;;5.12;100.00;95517.97;10354533;28;2111;-77
2024/03/05 23:46:51;;;;;;;;;;;;;;;5.19;100.00;95515.94;10362342;28;2171;-71
2024/03/05 23:51:54;;;;;;;;;;;;;;;5.05;100.00;95517.34;10368915;28;1974;-70
2024/03/05 23:56:57;;;;;;;;;;;;;;;5.14;100.00;95521.19;10361433;28;1896;-70
